Time;durP1;ratioP1;P1;durP2;ratioP2;P2;SDS_P1;SDS_P2;PMS_P1;PMS_P2;Temp;Humidity;BMP_temperature;BMP_pressure;BME280_temperature;BME280_humidity;BME280_pressure;Samples;Min_cycle;Max_cycle;Signal;HPM_P1;HPM_P2
2024/01/08 00:00:39;;;;;;;6.05;5.15;;;;;;;1.82;51.30;103155.88;5002259;28;96988;-70
2024/01/08 00:03:06;;;;;;;6.72;4.60;;;;;;;1.83;51.31;103153.25;5000335;28;97570;-69
2024/01/08 00:05:38;;;;;;;5.20;4.55;;;;;;;1.84;51.37;103147.06;4983691;28;97952;-70
2024/01/08 00:08:08;;;;;;;6.05;5.30;;;;;;;1.85;50.96;103150.59;4999422;28;97056;-70
2024/01/08 00:10:38;;;;;;;6.18;4.90;;;;;;;1.86;51.21;103149.72;5002419;28;96911;-70
2024/01/08 00:13:05;;;;;;;5.85;5.15;;;;;;;1.87;51.19;103144.41;4999016;28;98504;-71
2024/01/08 00:15:32;;;;;;;5.25;4.75;;;;;;;1.90;51.38;103140.91;5001499;28;97663;-70
2024/01/08 00:18:00;;;;;;;6.50;4.97;;;;;;;1.92;51.35;103149.72;5002710;28;97068;-71
2024/01/08 00:20:27;;;;;;;6.47;5.40;;;;;;;1.95;51.27;103155.03;5004109;28;98247;-71
2024/01/08 00:22:54;;;;;;;6.18;5.32;;;;;;;1.95;51.29;103155.03;5002144;28;97455;-71
2024/01/08 00:25:21;;;;;;;5.93;4.65;;;;;;;1.96;51.23;103155.91;5001439;28;97656;-71
2024/01/08 00:27:51;;;;;;;6.07;5.47;;;;;;;1.98;51.21;103152.38;4998792;28;97047;-70
2024/01/08 00:30:18;;;;;;;6.40;5.03;;;;;;;1.99;51.32;103153.28;4997003;28;98496;-70
2024/01/08 00:32:46;;;;;;;6.57;5.88;;;;;;;2.01;51.12;103156.81;5002051;27;97641;-70
2024/01/08 00:35:14;;;;;;;6.47;5.50;;;;;;;2.01;51.16;103155.03;4999848;28;98523;-70
2024/01/08 00:37:41;;;;;;;7.45;5.28;;;;;;;2.04;51.18;103148.84;5000262;28;97610;-71
2024/01/08 00:40:11;;;;;;;5.93;5.28;;;;;;;2.06;51.26;103152.41;5001480;28;96805;-70
2024/01/08 00:42:38;;;;;;;6.45;5.85;;;;;;;2.06;51.16;103152.41;5001423;27;97512;-70
2024/01/08 00:45:07;;;;;;;6.93;5.43;;;;;;;2.04;50.99;103149.75;4998717;28;97493;-70
2024/01/08 00:47:34;;;;;;;5.75;5.15;;;;;;;2.02;50.71;103145.31;4998962;28;97921;-71
2024/01/08 00:50:13;;;;;;;5.85;5.07;;;;;;;1.99;50.77;103153.28;4996629;28;98841;-70
2024/01/08 00:52:41;;;;;;;5.75;5.20;;;;;;;1.98;51.02;103148.84;5003028;28;97781;-70
2024/01/08 00:55:11;;;;;;;6.43;5.03;;;;;;;1.94;50.71;103152.38;5004035;28;98060;-70
2024/01/08 00:57:39;;;;;;;6.88;5.65;;;;;;;1.90;50.73;103147.06;5001715;28;97184;-70
2024/01/08 01:00:08;;;;;;;5.60;4.65;;;;;;;1.86;50.59;103161.19;5002238;28;98492;-70
2024/01/08 01:02:35;;;;;;;5.68;4.50;;;;;;;1.85;50.78;103156.78;5002139;28;97834;-71
2024/01/08 01:05:02;;;;;;;6.57;5.88;;;;;;;1.85;50.74;103159.44;5003588;28;98296;-71
2024/01/08 01:07:31;;;;;;;5.70;4.65;;;;;;;1.83;50.73;103161.19;4999939;28;97298;-70
2024/01/08 01:09:58;;;;;;;6.68;4.78;;;;;;;1.83;50.84;103161.19;4999596;28;97319;-71
2024/01/08 01:12:24;;;;;;;5.65;4.72;;;;;;;1.80;50.82;103161.19;5001402;28;97714;-71
2024/01/08 01:14:51;;;;;;;6.10;4.78;;;;;;;1.78;50.76;103162.94;4998339;28;97616;-71
2024/01/08 01:17:18;;;;;;;5.18;4.47;;;;;;;1.75;50.89;103162.94;5000718;28;97351;-70
2024/01/08 01:19:45;;;;;;;6.82;4.75;;;;;;;1.75;50.82;103168.25;4999709;28;96965;-70
2024/01/08 01:22:11;;;;;;;6.20;4.47;;;;;;;1.72;50.85;103157.63;4998037;28;97607;-70
2024/01/08 01:24:38;;;;;;;6.03;4.80;;;;;;;1.71;50.75;103163.81;5001388;28;97465;-71
2024/01/08 01:27:05;;;;;;;6.00;4.75;;;;;;;1.70;50.71;103170.00;4999608;28;97250;-70
2024/01/08 01:29:31;;;;;;;6.05;4.45;;;;;;;1.66;50.83;103176.16;5003497;28;97408;-71
2024/01/08 01:31:59;;;;;;;6.35;4.38;;;;;;;1.64;50.80;103172.63;5002910;28;97780;-70
2024/01/08 01:34:26;;;;;;;7.22;4.80;;;;;;;1.63;50.76;103168.22;5003602;28;97409;-71
2024/01/08 01:36:53;;;;;;;6.60;4.55;;;;;;;1.61;50.93;103172.63;5001168;28;97765;-70
2024/01/08 01:39:19;;;;;;;6.47;5.45;;;;;;;1.58;50.84;103170.84;5005669;28;96764;-70
2024/01/08 01:41:46;;;;;;;5.95;4.53;;;;;;;1.56;50.84;103169.94;5003794;28;98099;-71
2024/01/08 01:44:13;;;;;;;5.97;4.60;;;;;;;1.55;51.01;103176.13;5000818;28;98093;-71
2024/01/08 01:46:43;;;;;;;6.45;5.07;;;;;;;1.54;50.73;103178.78;4999448;28;96872;-70
2024/01/08 01:49:16;;;;;;;7.05;5.03;;;;;;;1.51;50.71;103178.75;5006148;28;97175;-71
2024/01/08 01:51:44;;;;;;;6.05;5.45;;;;;;;1.48;50.77;103184.91;5003744;28;99702;-71
2024/01/08 01:54:14;;;;;;;8.13;4.88;;;;;;;1.47;50.94;103187.53;5002587;28;97710;-71
2024/01/08 01:56:42;;;;;;;5.93;4.47;;;;;;;1.47;50.99;103184.91;5001970;28;97553;-71
2024/01/08 01:59:10;;;;;;;8.80;5.68;;;;;;;1.44;51.02;103182.22;5004726;28;97323;-71
2024/01/08 02:01:37;;;;;;;6.85;4.90;;;;;;;1.42;50.89;103184.00;4999441;28;97348;-71
2024/01/08 02:04:04;;;;;;;6.75;4.72;;;;;;;1.39;51.06;103187.50;5002335;28;97799;-70
2024/01/08 02:06:35;;;;;;;7.43;6.20;;;;;;;1.36;51.19;103181.31;5021300;27;97220;-70
2024/01/08 02:09:02;;;;;;;7.95;6.25;;;;;;;1.33;51.07;103183.94;5000425;28;97093;-70
2024/01/08 02:11:29;;;;;;;5.78;4.80;;;;;;;1.31;51.03;103191.00;4999480;28;97632;-70
2024/01/08 02:13:56;;;;;;;7.40;4.75;;;;;;;1.28;51.01;103179.53;5004758;28;97752;-70
2024/01/08 02:16:23;;;;;;;7.75;5.72;;;;;;;1.26;51.19;103186.56;5005864;28;97611;-72
2024/01/08 02:18:49;;;;;;;7.78;5.60;;;;;;;1.22;51.07;103186.53;5005076;28;97049;-71
2024/01/08 02:21:16;;;;;;;6.43;5.50;;;;;;;1.19;51.16;103190.06;5010865;27;100359;-71
2024/01/08 02:23:43;;;;;;;7.15;5.90;;;;;;;1.17;51.23;103183.88;5003162;28;97524;-71
2024/01/08 02:26:12;;;;;;;7.70;5.50;;;;;;;1.15;51.23;103195.34;5001123;28;97103;-70
2024/01/08 02:28:39;;;;;;;7.03;5.70;;;;;;;1.13;51.31;103200.63;5005766;28;97060;-70
2024/01/08 02:31:06;;;;;;;7.68;5.63;;;;;;;1.12;51.45;103187.38;5002442;28;98098;-71
2024/01/08 02:33:33;;;;;;;8.63;5.28;;;;;;;1.11;51.46;103201.50;5002723;28;98070;-71
2024/01/08 02:36:00;;;;;;;5.60;5.00;;;;;;;1.10;51.56;103199.72;5002089;28;96967;-70
2024/01/08 02:38:27;;;;;;;8.48;5.72;;;;;;;1.09;51.55;103196.19;5008352;27;100555;-70
2024/01/08 02:40:54;;;;;;;9.45;5.47;;;;;;;1.10;51.43;103197.06;5002606;28;100240;-72
2024/01/08 02:43:20;;;;;;;7.57;5.05;;;;;;;1.10;51.51;103197.06;5002546;28;97743;-72
2024/01/08 02:45:47;;;;;;;8.00;6.30;;;;;;;1.08;51.67;103198.81;4999940;28;96855;-72
2024/01/08 02:48:14;;;;;;;9.57;5.65;;;;;;;1.06;51.71;103190.88;5004160;28;97621;-70
2024/01/08 02:50:41;;;;;;;9.98;5.68;;;;;;;1.04;51.82;103195.28;5006783;28;97516;-70
2024/01/08 02:53:07;;;;;;;8.07;5.05;;;;;;;1.03;51.59;103200.56;5002139;28;97887;-71
2024/01/08 02:55:34;;;;;;;6.88;4.85;;;;;;;1.00;51.73;103201.41;5003477;28;96877;-70
2024/01/08 02:58:05;;;;;;;10.05;6.20;;;;;;;1.00;51.79;103190.84;5004775;28;96956;-70
2024/01/08 03:00:31;;;;;;;8.15;5.68;;;;;;;1.00;51.78;103201.41;5000988;27;98033;-70
2024/01/08 03:02:58;;;;;;;7.07;5.53;;;;;;;0.99;51.77;103202.31;5001979;28;97549;-70
2024/01/08 03:05:25;;;;;;;8.65;6.07;;;;;;;0.97;51.78;103206.69;5000046;28;97043;-72
2024/01/08 03:07:51;;;;;;;10.93;5.85;;;;;;;0.96;51.95;103210.22;5002720;28;97487;-70
2024/01/08 03:10:18;;;;;;;7.40;5.05;;;;;;;0.96;51.97;103207.56;5003546;28;98574;-71
2024/01/08 03:12:45;;;;;;;8.00;5.50;;;;;;;0.98;52.12;103204.94;5003882;28;97497;-70
2024/01/08 03:15:12;;;;;;;8.25;5.55;;;;;;;0.97;52.15;103209.34;5001703;28;96892;-69
2024/01/08 03:17:38;;;;;;;8.90;5.65;;;;;;;0.96;52.00;103207.56;5003552;28;97155;-71
2024/01/08 03:20:08;;;;;;;6.70;5.35;;;;;;;1.00;52.05;103211.13;5000568;28;97383;-71
2024/01/08 03:22:35;;;;;;;7.82;5.80;;;;;;;1.00;52.06;103214.66;4999101;28;97855;-70
2024/01/08 03:25:02;;;;;;;8.23;5.47;;;;;;;1.00;51.93;103206.72;5003655;28;97118;-72
2024/01/08 03:27:29;;;;;;;8.48;5.60;;;;;;;1.01;52.07;103210.25;5003086;28;97195;-72
2024/01/08 03:29:56;;;;;;;7.75;5.28;;;;;;;1.01;52.12;103213.78;4999522;28;97853;-72
2024/01/08 03:32:23;;;;;;;9.98;5.75;;;;;;;1.03;52.35;103206.72;4997746;28;99831;-73
2024/01/08 03:34:50;;;;;;;6.82;5.38;;;;;;;1.03;52.21;103206.72;4999399;28;97050;-73
2024/01/08 03:37:16;;;;;;;7.72;5.60;;;;;;;1.03;52.35;103206.72;4999488;28;96929;-71
2024/01/08 03:39:43;;;;;;;7.63;5.50;;;;;;;1.06;52.27;103211.16;4997432;28;98036;-72
2024/01/08 03:42:10;;;;;;;9.18;6.28;;;;;;;1.05;52.31;103202.34;5002461;28;99238;-72
2024/01/08 03:44:37;;;;;;;7.43;5.30;;;;;;;1.05;52.42;103207.63;5005074;28;97441;-72
2024/01/08 03:47:04;;;;;;;8.50;6.05;;;;;;;1.08;52.31;103206.75;5003398;28;96972;-72
2024/01/08 03:49:31;;;;;;;7.40;5.32;;;;;;;1.09;52.36;103208.53;4998792;28;97559;-71
2024/01/08 03:51:57;;;;;;;10.45;5.97;;;;;;;1.09;52.47;103198.84;4997763;28;98100;-70
2024/01/08 03:54:24;;;;;;;7.10;5.85;;;;;;;1.11;52.45;103199.72;5000919;28;97723;-71
2024/01/08 03:56:50;;;;;;;7.72;6.40;;;;;;;1.11;52.45;103205.03;5003267;28;97608;-72
2024/01/08 03:59:17;;;;;;;7.60;5.22;;;;;;;1.11;52.39;103201.50;4999508;28;97844;-72
2024/01/08 04:01:50;;;;;;;9.18;5.82;;;;;;;1.12;52.53;103201.50;5003269;28;97418;-72
2024/01/08 04:04:17;;;;;;;7.10;5.22;;;;;;;1.14;52.23;103202.38;4999983;28;97270;-71
2024/01/08 04:06:45;;;;;;;8.43;5.47;;;;;;;1.16;52.45;103205.03;5003798;28;97508;-71
2024/01/08 04:09:15;;;;;;;7.63;5.10;;;;;;;1.19;52.62;103194.47;5002132;28;98428;-70
2024/01/08 04:11:42;;;;;;;8.05;5.35;;;;;;;1.22;52.67;103191.84;5002953;28;97661;-71
2024/01/08 04:14:08;;;;;;;9.20;5.60;;;;;;;1.24;52.60;103200.66;5000953;28;97360;-71
2024/01/08 04:16:37;;;;;;;7.45;5.88;;;;;;;1.28;52.57;103192.75;5000546;28;96873;-71
2024/01/08 04:19:04;;;;;;;7.75;5.88;;;;;;;1.31;52.57;103197.19;4999528;28;99501;-71
2024/01/08 04:21:31;;;;;;;8.07;6.00;;;;;;;1.33;52.74;103206.00;4998319;28;97502;-72
2024/01/08 04:23:57;;;;;;;9.23;6.28;;;;;;;1.35;52.58;103204.25;4998472;28;97421;-71
2024/01/08 04:26:25;;;;;;;10.77;5.88;;;;;;;1.36;52.67;103202.50;5002286;28;96962;-71
2024/01/08 04:28:52;;;;;;;7.93;6.00;;;;;;;1.36;52.65;103203.38;5000192;28;98608;-71
2024/01/08 04:31:20;;;;;;;9.50;5.70;;;;;;;1.36;52.62;103200.72;5001005;27;97544;-71
2024/01/08 04:33:48;;;;;;;7.30;5.97;;;;;;;1.39;52.71;103199.88;5003032;28;97112;-72
2024/01/08 04:36:15;;;;;;;8.77;6.20;;;;;;;1.39;52.67;103202.50;4999479;28;97238;-72
2024/01/08 04:38:45;;;;;;;9.93;6.28;;;;;;;1.41;52.76;103211.34;5003129;28;97624;-71
2024/01/08 04:41:19;;;;;;;8.75;6.78;;;;;;;1.41;52.81;103198.09;4999173;28;97667;-71
2024/01/08 04:43:47;;;;;;;10.35;5.97;;;;;;;1.40;52.85;103196.34;5001929;28;97409;-72
2024/01/08 04:46:14;;;;;;;9.20;7.68;;;;;;;1.41;53.03;103198.09;5000238;28;97581;-71
2024/01/08 04:48:41;;;;;;;8.95;6.85;;;;;;;1.40;53.03;103198.97;5003537;28;97663;-71
2024/01/08 04:51:19;;;;;;;10.48;7.25;;;;;;;1.42;53.20;103206.06;5003981;28;97466;-71
2024/01/08 04:53:45;;;;;;;11.35;7.22;;;;;;;1.44;53.18;103203.41;5002819;28;97733;-71
2024/01/08 04:56:30;;;;;;;10.18;7.38;;;;;;;1.46;53.10;103201.66;5003055;28;96932;-71
2024/01/08 04:58:57;;;;;;;10.27;6.53;;;;;;;1.48;53.21;103206.09;5001827;28;98904;-72
2024/01/08 05:01:24;;;;;;;10.05;6.65;;;;;;;1.52;53.24;103197.31;5001369;28;97758;-71
2024/01/08 05:03:51;;;;;;;9.90;6.65;;;;;;;1.55;53.42;103201.72;5001692;28;97144;-71
2024/01/08 05:06:18;;;;;;;9.60;7.00;;;;;;;1.58;53.66;103202.63;5006089;28;97501;-71
2024/01/08 05:08:45;;;;;;;9.70;7.13;;;;;;;1.59;53.54;103201.75;5017428;27;98674;-70
2024/01/08 05:11:13;;;;;;;9.50;8.07;;;;;;;1.64;53.52;103198.22;5003545;28;98244;-71
2024/01/08 05:13:40;;;;;;;10.60;7.18;;;;;;;1.66;53.55;103204.41;5004798;28;97323;-72
2024/01/08 05:16:07;;;;;;;10.80;7.00;;;;;;;1.65;53.60;103200.88;5007042;28;97489;-71
2024/01/08 05:18:34;;;;;;;9.70;6.55;;;;;;;1.69;53.64;103196.47;4999854;28;97811;-70
2024/01/08 05:21:03;;;;;;;10.43;7.93;;;;;;;1.71;53.58;103200.00;5004127;28;97626;-72
2024/01/08 05:23:30;;;;;;;9.45;7.03;;;;;;;1.71;53.62;103192.94;5001093;28;97737;-71
2024/01/08 05:25:59;;;;;;;12.85;7.82;;;;;;;1.73;53.59;103207.09;5007764;28;97148;-71
2024/01/08 05:28:28;;;;;;;10.63;6.93;;;;;;;1.74;53.66;103200.03;5001346;28;97540;-72
2024/01/08 05:30:55;;;;;;;9.43;6.55;;;;;;;1.76;53.76;103196.50;5018670;27;98049;-71
2024/01/08 05:33:22;;;;;;;10.98;7.75;;;;;;;1.78;53.72;103196.50;5005105;28;97497;-71
2024/01/08 05:35:49;;;;;;;11.15;7.88;;;;;;;1.79;53.81;103179.72;5003532;28;97391;-71
2024/01/08 05:38:16;;;;;;;11.45;8.43;;;;;;;1.80;53.96;103189.44;5005608;28;97644;-72
2024/01/08 05:40:43;;;;;;;17.60;7.82;;;;;;;1.82;53.91;103192.97;5003743;28;98532;-72
2024/01/08 05:43:10;;;;;;;10.48;7.38;;;;;;;1.84;53.85;103192.09;5001849;28;97670;-73
2024/01/08 05:45:39;;;;;;;11.80;8.45;;;;;;;1.87;53.93;103192.13;5000034;28;97075;-71
2024/01/08 05:48:07;;;;;;;9.45;7.25;;;;;;;1.89;53.87;103189.47;4997546;28;97803;-71
2024/01/08 05:50:38;;;;;;;12.07;8.73;;;;;;;1.91;54.04;103185.94;5003020;28;98160;-71
2024/01/08 05:53:05;;;;;;;9.85;7.32;;;;;;;1.92;54.08;103187.72;5002958;28;97028;-70
2024/01/08 05:55:32;;;;;;;8.52;7.10;;;;;;;1.94;54.11;103190.34;4998815;28;96779;-71
2024/01/08 05:57:59;;;;;;;10.85;8.00;;;;;;;1.97;54.10;103194.78;5001078;28;97952;-72
2024/01/08 06:00:26;;;;;;;8.90;7.00;;;;;;;1.99;54.11;103193.03;5001873;28;100072;-71
2024/01/08 06:02:52;;;;;;;11.52;7.60;;;;;;;2.01;54.18;103188.59;5001482;28;97162;-72
2024/01/08 06:05:19;;;;;;;10.18;7.97;;;;;;;2.03;54.21;103194.78;5001686;28;97419;-72
2024/01/08 06:07:47;;;;;;;10.25;7.25;;;;;;;2.04;54.25;103180.66;5002175;28;97696;-72
2024/01/08 06:10:15;;;;;;;10.77;8.02;;;;;;;2.05;53.94;103185.06;4999447;28;97726;-71
2024/01/08 06:12:41;;;;;;;10.52;7.80;;;;;;;2.06;54.19;103194.81;5002124;27;97303;-71
2024/01/08 06:15:08;;;;;;;12.85;8.30;;;;;;;2.08;54.22;103198.34;4999528;28;98048;-71
2024/01/08 06:17:35;;;;;;;11.75;8.52;;;;;;;2.09;54.07;103184.19;5003232;28;97754;-71
2024/01/08 06:20:01;;;;;;;11.55;8.13;;;;;;;2.10;54.24;103191.28;4996587;28;97448;-71
2024/01/08 06:22:28;;;;;;;11.63;8.52;;;;;;;2.11;54.36;103193.03;5005687;28;97280;-71
2024/01/08 06:24:55;;;;;;;12.27;8.10;;;;;;;2.13;54.28;103207.19;5001786;28;97148;-70
2024/01/08 06:27:21;;;;;;;12.00;8.32;;;;;;;2.13;54.30;103199.22;5001810;28;97540;-71
2024/01/08 06:29:48;;;;;;;11.68;7.55;;;;;;;2.14;54.15;103188.63;4994907;28;97559;-69
2024/01/08 06:32:14;;;;;;;10.77;7.60;;;;;;;2.16;54.45;103185.97;4996796;28;97433;-71
2024/01/08 06:34:41;;;;;;;10.88;8.13;;;;;;;2.17;54.31;103195.69;5002293;28;97072;-70
2024/01/08 06:37:08;;;;;;;9.98;7.50;;;;;;;2.18;54.41;103192.16;5004199;28;97814;-71
2024/01/08 06:39:35;;;;;;;13.38;7.90;;;;;;;2.20;54.35;103187.75;4999121;28;98057;-70
2024/01/08 06:42:02;;;;;;;10.43;8.02;;;;;;;2.21;54.46;103192.16;5000891;28;97271;-71
2024/01/08 06:44:29;;;;;;;11.63;8.10;;;;;;;2.23;54.34;103206.34;5000709;28;97147;-71
2024/01/08 06:46:55;;;;;;;9.43;8.00;;;;;;;2.24;54.25;103200.16;4998680;28;97378;-70
2024/01/08 06:49:22;;;;;;;9.50;7.43;;;;;;;2.25;54.42;103188.66;5002566;28;98043;-70
2024/01/08 06:51:49;;;;;;;15.13;8.10;;;;;;;2.26;54.33;103198.38;5006236;28;97078;-71
2024/01/08 06:54:15;;;;;;;12.50;8.70;;;;;;;2.28;54.39;103196.63;5013458;28;97118;-70
2024/01/08 06:56:42;;;;;;;11.05;6.82;;;;;;;2.30;54.37;103191.31;4996078;28;97745;-71
2024/01/08 06:59:09;;;;;;;9.50;6.90;;;;;;;2.30;54.48;103192.22;5007562;28;98013;-71
2024/01/08 07:01:35;;;;;;;11.40;7.90;;;;;;;2.33;54.43;103192.22;5003753;28;97410;-71
2024/01/08 07:04:02;;;;;;;10.40;7.88;;;;;;;2.33;54.32;103193.97;5001531;28;97463;-72
2024/01/08 07:06:29;;;;;;;10.90;7.38;;;;;;;2.32;54.31;103203.69;4999248;28;97661;-71
2024/01/08 07:08:56;;;;;;;11.10;7.65;;;;;;;2.33;54.28;103196.63;5001136;28;98120;-71
2024/01/08 07:11:23;;;;;;;11.68;8.18;;;;;;;2.34;54.31;103207.25;5006105;28;97131;-70
2024/01/08 07:13:50;;;;;;;10.40;8.43;;;;;;;2.35;53.96;103209.00;4999331;28;98997;-70
2024/01/08 07:16:18;;;;;;;10.38;7.72;;;;;;;2.34;54.45;103204.59;5014945;28;97428;-71
2024/01/08 07:18:45;;;;;;;9.85;8.02;;;;;;;2.34;54.31;103206.34;5013294;28;98122;-70
2024/01/08 07:21:16;;;;;;;10.10;7.95;;;;;;;2.34;54.37;103201.03;5004793;28;97346;-71
2024/01/08 07:23:45;;;;;;;10.27;7.88;;;;;;;2.34;54.23;103214.31;4992675;28;97293;-70
2024/01/08 07:26:15;;;;;;;11.13;6.55;;;;;;;2.35;54.35;103216.06;4995198;28;97613;-69
2024/01/08 07:28:45;;;;;;;9.10;7.30;;;;;;;2.37;54.33;103217.84;4988018;28;98045;-71
2024/01/08 07:31:15;;;;;;;9.90;7.75;;;;;;;2.38;54.17;103224.03;5003911;28;97788;-71
2024/01/08 07:33:42;;;;;;;10.77;7.25;;;;;;;2.37;54.29;103222.25;4979274;28;97683;-71
2024/01/08 07:36:09;;;;;;;11.48;8.23;;;;;;;2.37;54.12;103212.53;4990981;28;98122;-70
2024/01/08 07:38:37;;;;;;;11.73;7.55;;;;;;;2.38;54.31;103226.69;4982763;28;97845;-71
2024/01/08 07:41:07;;;;;;;10.32;7.28;;;;;;;2.39;54.21;103212.53;4981527;28;99734;-70
2024/01/08 07:43:36;;;;;;;8.98;6.70;;;;;;;2.39;54.22;103229.34;4981156;28;98835;-70
2024/01/08 07:46:03;;;;;;;9.82;7.07;;;;;;;2.41;54.11;103229.34;4979056;28;97664;-70
2024/01/08 07:48:30;;;;;;;10.55;7.55;;;;;;;2.43;54.22;103230.22;4986937;28;97514;-70
2024/01/08 07:50:56;;;;;;;9.95;6.97;;;;;;;2.44;54.20;103240.84;4982008;28;97547;-69
2024/01/08 07:53:23;;;;;;;11.32;7.65;;;;;;;2.45;54.08;103233.75;4985186;28;98192;-70
2024/01/08 07:55:50;;;;;;;10.35;6.95;;;;;;;2.45;54.11;103234.66;4983195;28;99597;-71
2024/01/08 07:58:17;;;;;;;8.50;7.10;;;;;;;2.46;53.98;103240.84;4987550;28;99807;-71
2024/01/08 08:00:57;;;;;;;8.20;6.75;;;;;;;2.48;53.98;103247.03;4981611;28;97189;-70
2024/01/08 08:03:23;;;;;;;9.55;6.03;;;;;;;2.48;54.06;103244.38;4984341;28;97255;-70
2024/01/08 08:05:50;;;;;;;7.78;6.35;;;;;;;2.48;53.88;103247.91;4982329;28;98623;-71
2024/01/08 08:08:18;;;;;;;7.90;6.63;;;;;;;2.47;53.71;103240.84;4990204;28;98532;-70
2024/01/08 08:10:44;;;;;;;8.27;6.47;;;;;;;2.46;53.79;103249.69;4975684;28;97343;-70
2024/01/08 08:13:12;;;;;;;9.40;6.72;;;;;;;2.47;53.75;103234.66;4986636;28;98522;-72
2024/01/08 08:15:38;;;;;;;8.60;6.78;;;;;;;2.44;53.71;103240.84;4978529;28;97764;-72
2024/01/08 08:18:05;;;;;;;8.50;7.13;;;;;;;2.42;53.69;103245.25;4978753;28;97489;-70
2024/01/08 08:20:32;;;;;;;8.48;6.25;;;;;;;2.41;53.43;103251.44;4983921;28;97390;-70
2024/01/08 08:22:59;;;;;;;8.63;6.22;;;;;;;2.41;53.72;103251.44;4978992;28;98046;-70
2024/01/08 08:25:26;;;;;;;8.93;6.75;;;;;;;2.40;53.87;103241.72;4981503;28;97998;-70
2024/01/08 08:27:53;;;;;;;7.28;6.05;;;;;;;2.41;53.93;103251.44;4987391;28;97540;-70
2024/01/08 08:30:22;;;;;;;8.07;6.32;;;;;;;2.41;53.86;103255.84;4983253;28;97060;-73
2024/01/08 08:32:50;;;;;;;8.63;6.28;;;;;;;2.41;53.81;103253.22;4985486;28;97454;-70
2024/01/08 08:35:17;;;;;;;10.32;7.55;;;;;;;2.41;53.93;103259.41;4979350;28;97450;-71
2024/01/08 08:37:45;;;;;;;8.82;6.68;;;;;;;2.41;53.91;103266.47;4953481;28;98697;-70
2024/01/08 08:40:20;;;;;;;8.45;6.93;;;;;;;2.40;53.84;103265.59;4985055;28;97322;-71
2024/01/08 08:42:46;;;;;;;9.00;6.80;;;;;;;2.41;53.74;103271.78;4984211;28;98178;-70
2024/01/08 08:45:17;;;;;;;8.32;6.55;;;;;;;2.42;53.85;103273.53;4977789;28;98014;-71
2024/01/08 08:47:43;;;;;;;8.30;6.35;;;;;;;2.43;53.93;103275.31;4982175;28;98597;-71
2024/01/08 08:50:12;;;;;;;9.60;6.13;;;;;;;2.43;53.89;103270.00;4982870;28;98779;-71
2024/01/08 08:52:39;;;;;;;9.38;6.70;;;;;;;2.44;53.85;103251.44;4981961;28;97433;-71
2024/01/08 08:55:06;;;;;;;7.57;6.18;;;;;;;2.44;53.92;103274.44;4983291;28;98795;-71
2024/01/08 08:57:37;;;;;;;8.98;6.97;;;;;;;2.44;54.04;103266.47;4983095;28;97943;-70
2024/01/08 09:00:07;;;;;;;8.43;7.45;;;;;;;2.44;53.86;103277.97;4983115;28;98031;-70
2024/01/08 09:02:34;;;;;;;9.02;7.32;;;;;;;2.42;53.97;103282.38;4979775;28;98283;-70
2024/01/08 09:05:02;;;;;;;9.45;7.25;;;;;;;2.39;54.08;103290.34;4981494;28;99253;-70
2024/01/08 09:07:29;;;;;;;9.15;7.45;;;;;;;2.38;54.09;103298.28;4979907;28;98358;-71
2024/01/08 09:09:55;;;;;;;9.55;7.57;;;;;;;2.34;54.28;103281.47;4979972;28;97794;-71
2024/01/08 09:12:22;;;;;;;10.02;7.93;;;;;;;2.33;54.64;103292.97;4982447;28;97343;-70
2024/01/08 09:14:49;;;;;;;10.40;7.10;;;;;;;2.32;54.71;103293.84;4986710;28;97436;-71
2024/01/08 09:17:15;;;;;;;9.68;7.53;;;;;;;2.35;54.80;103295.63;4981849;28;98228;-71
2024/01/08 09:19:42;;;;;;;10.80;8.15;;;;;;;2.35;54.78;103287.66;4986499;28;97112;-71
2024/01/08 09:22:12;;;;;;;12.85;8.90;;;;;;;2.35;54.95;103285.91;4984337;28;99029;-70
2024/01/08 09:24:38;;;;;;;12.27;8.82;;;;;;;2.35;54.79;103287.66;4984679;28;98686;-70
2024/01/08 09:27:05;;;;;;;12.43;7.75;;;;;;;2.36;54.92;103295.63;4986636;28;97556;-70
2024/01/08 09:29:32;;;;;;;10.07;7.88;;;;;;;2.38;55.07;103299.16;4980511;28;97400;-71
2024/01/08 09:31:59;;;;;;;8.82;7.85;;;;;;;2.38;55.06;103299.16;4989005;28;99824;-71
2024/01/08 09:34:26;;;;;;;9.55;7.93;;;;;;;2.40;55.09;103294.75;4987516;28;98259;-70
2024/01/08 09:36:52;;;;;;;10.30;8.35;;;;;;;2.43;54.94;103309.78;4986449;28;97385;-70
2024/01/08 09:39:20;;;;;;;8.18;7.13;;;;;;;2.44;54.99;103315.09;4992004;28;97187;-70
2024/01/08 09:41:48;;;;;;;8.68;6.95;;;;;;;2.45;54.99;103314.22;4977169;28;98012;-70
2024/01/08 09:44:16;;;;;;;8.93;7.10;;;;;;;2.49;54.97;103312.44;4979033;28;98174;-69
2024/01/08 09:46:47;;;;;;;8.23;6.03;;;;;;;2.50;54.81;103306.25;4980090;28;98094;-71
2024/01/08 09:49:15;;;;;;;8.30;7.30;;;;;;;2.50;54.62;103306.25;4981396;28;98866;-71
2024/01/08 09:51:44;;;;;;;9.40;6.75;;;;;;;2.50;54.53;103303.59;4990823;28;97577;-71
2024/01/08 09:54:12;;;;;;;8.00;6.85;;;;;;;2.50;54.65;103317.75;5005198;27;98572;-71
2024/01/08 09:56:38;;;;;;;10.50;7.03;;;;;;;2.52;54.26;103318.66;4981280;28;99074;-71
2024/01/08 09:59:05;;;;;;;9.20;6.90;;;;;;;2.54;54.30;103310.69;4988772;28;98425;-71
2024/01/08 10:01:32;;;;;;;8.02;7.05;;;;;;;2.55;54.15;103309.81;4990011;28;96983;-71
2024/01/08 10:04:01;;;;;;;7.97;7.18;;;;;;;2.56;54.18;103314.22;4988946;28;97653;-70
2024/01/08 10:06:28;;;;;;;9.18;7.03;;;;;;;2.58;53.97;103316.88;4981952;28;97616;-70
2024/01/08 10:08:56;;;;;;;7.07;6.00;;;;;;;2.58;54.00;103316.88;4984019;28;97125;-70
2024/01/08 10:11:23;;;;;;;10.63;6.57;;;;;;;2.60;53.90;103299.19;4978867;28;98251;-70
2024/01/08 10:13:50;;;;;;;8.27;7.20;;;;;;;2.61;53.90;103311.59;4988945;28;99038;-71
2024/01/08 10:16:17;;;;;;;11.80;7.07;;;;;;;2.61;53.60;103306.28;4985689;28;98327;-71
2024/01/08 10:18:49;;;;;;;7.22;6.22;;;;;;;2.62;53.90;103303.63;4989369;28;96915;-70
2024/01/08 10:21:17;;;;;;;7.93;6.32;;;;;;;2.65;53.58;103292.13;4980445;28;97297;-71
2024/01/08 10:23:46;;;;;;;7.88;6.65;;;;;;;2.67;53.72;103303.63;4986490;28;99856;-70
2024/01/08 10:26:16;;;;;;;8.52;6.53;;;;;;;2.68;53.75;103297.44;4984260;28;97947;-70
2024/01/08 10:28:45;;;;;;;8.52;6.95;;;;;;;2.71;53.70;103300.09;4986724;28;97501;-70
2024/01/08 10:31:12;;;;;;;9.07;6.65;;;;;;;2.72;53.73;103293.91;4987311;28;97988;-70
2024/01/08 10:33:39;;;;;;;8.68;6.45;;;;;;;2.76;53.72;103299.22;4980350;28;98194;-70
2024/01/08 10:36:07;;;;;;;9.27;6.63;;;;;;;2.78;53.70;103288.59;4978781;28;100095;-70
2024/01/08 10:38:34;;;;;;;8.43;6.70;;;;;;;2.79;53.63;103291.25;4983587;28;97032;-70
2024/01/08 10:41:01;;;;;;;8.15;6.47;;;;;;;2.82;53.45;103295.69;4980256;28;97862;-70
2024/01/08 10:43:29;;;;;;;7.78;6.53;;;;;;;2.82;53.51;103291.25;4967774;28;99333;-70
2024/01/08 10:46:02;;;;;;;8.93;7.07;;;;;;;2.83;53.47;103285.06;4994454;28;97672;-71
2024/01/08 10:48:40;;;;;;;9.30;7.13;;;;;;;2.83;53.48;103287.72;5008666;27;97518;-70
2024/01/08 10:51:09;;;;;;;9.32;7.10;;;;;;;2.85;53.37;103279.75;4987390;28;97610;-70
2024/01/08 10:53:53;;;;;;;7.88;6.50;;;;;;;2.86;53.13;103279.75;5003582;28;98052;-70
2024/01/08 10:56:28;;;;;;;8.23;6.30;;;;;;;2.89;53.26;103276.22;5015996;28;100210;-70
2024/01/08 10:59:05;;;;;;;7.15;5.93;;;;;;;2.88;53.14;103270.03;5000356;27;97088;-70
2024/01/08 11:01:33;;;;;;;6.57;5.90;;;;;;;2.90;53.29;103270.03;5003704;28;96804;-70
2024/01/08 11:04:02;;;;;;;7.05;6.20;;;;;;;2.95;53.31;103267.38;5000234;28;98155;-70
2024/01/08 11:06:30;;;;;;;6.78;5.68;;;;;;;2.99;53.29;103254.13;5000231;28;98105;-70
2024/01/08 11:08:57;;;;;;;8.18;6.28;;;;;;;3.03;53.00;103268.28;5001179;28;97196;-70
2024/01/08 11:11:25;;;;;;;6.80;6.10;;;;;;;3.07;52.75;103262.97;4996907;28;97552;-70
2024/01/08 11:13:52;;;;;;;8.88;6.50;;;;;;;3.12;52.74;103255.88;5000205;28;97667;-70
2024/01/08 11:16:29;;;;;;;6.60;5.90;;;;;;;3.14;52.39;103261.19;4997088;28;97571;-69
2024/01/08 11:19:18;;;;;;;7.70;6.20;;;;;;;3.11;52.13;103248.78;5000268;28;97140;-70
2024/01/08 11:21:49;;;;;;;6.88;5.60;;;;;;;3.11;52.07;103247.91;5000884;28;96916;-70
2024/01/08 11:24:15;;;;;;;6.93;5.95;;;;;;;3.11;51.93;103243.47;4990519;28;97678;-69
2024/01/08 11:26:44;;;;;;;6.75;5.97;;;;;;;3.13;51.95;103257.63;4987624;28;97540;-69
2024/01/08 11:29:12;;;;;;;6.47;5.72;;;;;;;3.14;51.72;103255.88;4983525;28;97867;-70
2024/01/08 11:31:48;;;;;;;7.97;6.20;;;;;;;3.13;51.69;103231.09;4987842;28;97309;-69
2024/01/08 11:34:34;;;;;;;5.93;5.30;;;;;;;3.14;51.50;103245.25;4990102;28;98083;-70